createdAt,value
2019-03-03T00:00:03.157Z,84
2019-03-03T00:01:02.815Z,84
2019-03-03T00:02:02.881Z,84
2019-03-03T00:03:02.929Z,84
2019-03-03T00:04:03.095Z,84
2019-03-03T00:05:03.016Z,84
2019-03-03T00:06:02.853Z,84
2019-03-03T00:07:03.751Z,84
2019-03-03T00:08:03.737Z,84
2019-03-03T00:09:03.705Z,84
2019-03-03T00:10:03.768Z,84
2019-03-03T00:11:03.755Z,84
2019-03-03T00:12:03.520Z,84
2019-03-03T00:13:03.057Z,84
2019-03-03T00:14:04.435Z,84
2019-03-03T00:15:03.217Z,84
2019-03-03T00:16:02.828Z,84
2019-03-03T00:17:03.010Z,84
2019-03-03T00:18:03.681Z,84
2019-03-03T00:19:03.608Z,84
2019-03-03T00:20:03.633Z,84
2019-03-03T00:21:02.713Z,84
2019-03-03T00:22:03.643Z,84
2019-03-03T00:23:03.523Z,84
2019-03-03T00:24:03.827Z,84
2019-03-03T00:25:03.521Z,84
2019-03-03T00:26:03.713Z,84
2019-03-03T00:27:03.558Z,84
2019-03-03T00:28:03.711Z,84
2019-03-03T00:29:03.618Z,84
2019-03-03T00:30:03.670Z,84
2019-03-03T00:31:03.691Z,84
2019-03-03T00:32:03.441Z,84
2019-03-03T00:33:03.503Z,84
2019-03-03T00:34:03.251Z,84
2019-03-03T00:35:03.098Z,84
2019-03-03T00:36:03.165Z,84
2019-03-03T00:37:03.465Z,84
2019-03-03T00:38:03.415Z,84
2019-03-03T00:39:03.384Z,84
2019-03-03T00:40:03.547Z,84
2019-03-03T00:41:03.007Z,84
2019-03-03T00:42:03.407Z,84
2019-03-03T00:43:03.382Z,84
2019-03-03T00:44:03.754Z,84
2019-03-03T00:45:03.592Z,84
2019-03-03T00:46:03.452Z,84
2019-03-03T00:47:03.648Z,84
2019-03-03T00:48:03.679Z,84
2019-03-03T00:49:03.503Z,84
2019-03-03T00:50:03.230Z,84
2019-03-03T00:51:03.489Z,84
2019-03-03T00:52:03.431Z,84
2019-03-03T00:53:03.397Z,84
2019-03-03T00:54:03.403Z,84
2019-03-03T00:55:03.437Z,84
2019-03-03T00:56:03.503Z,84
2019-03-03T00:57:03.319Z,84
2019-03-03T00:58:03.739Z,84
2019-03-03T00:59:03.413Z,84
2019-03-03T01:00:03.264Z,84
2019-03-03T01:01:03.421Z,84
2019-03-03T01:02:03.200Z,85
2019-03-03T01:03:03.139Z,85
2019-03-03T01:04:03.294Z,85
2019-03-03T01:05:03.486Z,85
2019-03-03T01:06:03.268Z,85
2019-03-03T01:07:03.178Z,85
2019-03-03T01:08:03.280Z,85
2019-03-03T01:09:03.074Z,85
2019-03-03T01:10:03.265Z,85
2019-03-03T01:11:02.961Z,85
2019-03-03T01:12:02.998Z,85
2019-03-03T01:13:03.039Z,85
2019-03-03T01:14:02.528Z,85
2019-03-03T01:15:02.986Z,85
2019-03-03T01:16:03.054Z,85
2019-03-03T01:17:03.524Z,85
2019-03-03T01:18:02.975Z,85
2019-03-03T01:19:02.886Z,85
2019-03-03T01:20:02.948Z,85
2019-03-03T01:21:03.793Z,85
2019-03-03T01:22:03.846Z,85
2019-03-03T01:23:03.646Z,85
2019-03-03T01:24:03.377Z,85
2019-03-03T01:25:03.667Z,85
2019-03-03T01:26:03.477Z,85
2019-03-03T01:27:02.842Z,85
2019-03-03T01:28:03.599Z,85
2019-03-03T01:29:03.505Z,85
2019-03-03T01:30:03.612Z,85
2019-03-03T01:31:03.224Z,85
2019-03-03T01:32:03.593Z,85
2019-03-03T01:33:03.513Z,85
2019-03-03T01:34:03.478Z,85
2019-03-03T01:35:03.713Z,85
2019-03-03T01:36:03.389Z,85
2019-03-03T01:37:03.375Z,85
2019-03-03T01:38:03.295Z,85
2019-03-03T01:39:03.284Z,85
2019-03-03T01:40:03.439Z,85
2019-03-03T01:41:03.351Z,85
2019-03-03T01:42:03.375Z,85
2019-03-03T01:43:03.245Z,85
2019-03-03T01:44:03.090Z,85
2019-03-03T01:45:03.128Z,85
2019-03-03T01:46:03.247Z,85
2019-03-03T01:47:03.352Z,85
2019-03-03T01:48:03.098Z,85
2019-03-03T01:49:03.099Z,85
2019-03-03T01:50:03.065Z,85
2019-03-03T01:51:03.087Z,85
2019-03-03T01:52:02.646Z,85
2019-03-03T01:53:02.985Z,85
2019-03-03T01:54:02.514Z,85
2019-03-03T01:55:03.025Z,85
2019-03-03T01:56:02.867Z,85
2019-03-03T01:57:03.034Z,85
2019-03-03T01:58:03.394Z,85
2019-03-03T01:59:02.971Z,85
2019-03-03T02:00:02.819Z,85
2019-03-03T02:01:03.504Z,85
2019-03-03T02:02:03.426Z,85
2019-03-03T02:03:03.474Z,85
2019-03-03T02:04:03.686Z,85
2019-03-03T02:05:03.717Z,85
2019-03-03T02:06:03.668Z,85
2019-03-03T02:07:03.772Z,85
2019-03-03T02:08:03.673Z,85
2019-03-03T02:09:03.514Z,85
2019-03-03T02:10:02.848Z,85
2019-03-03T02:11:03.545Z,85
2019-03-03T02:12:02.738Z,85
2019-03-03T02:13:03.694Z,85
2019-03-03T02:14:03.440Z,85
2019-03-03T02:15:03.820Z,85
2019-03-03T02:16:02.303Z,85
2019-03-03T02:17:03.800Z,85
2019-03-03T02:18:03.621Z,85
2019-03-03T02:19:03.550Z,85
2019-03-03T02:20:03.366Z,85
2019-03-03T02:21:03.602Z,85
2019-03-03T02:22:03.617Z,85
2019-03-03T02:23:03.288Z,85
2019-03-03T02:24:03.335Z,85
2019-03-03T02:25:03.387Z,85
2019-03-03T02:26:03.219Z,85
2019-03-03T02:27:03.278Z,85
2019-03-03T02:28:03.374Z,85
2019-03-03T02:29:03.327Z,85
2019-03-03T02:30:03.466Z,85
2019-03-03T02:31:03.007Z,85
2019-03-03T02:32:03.172Z,85
2019-03-03T02:33:02.831Z,85
2019-03-03T02:34:03.294Z,85
2019-03-03T02:35:03.323Z,85
2019-03-03T02:36:03.402Z,85
2019-03-03T02:37:03.274Z,85
2019-03-03T02:38:03.246Z,85
2019-03-03T02:39:03.279Z,85
2019-03-03T02:40:02.163Z,85
2019-03-03T02:41:03.291Z,85
2019-03-03T02:42:03.505Z,85
2019-03-03T02:43:03.735Z,85
2019-03-03T02:44:02.836Z,85
2019-03-03T02:45:03.288Z,84
2019-03-03T02:46:02.998Z,84
2019-03-03T02:47:03.214Z,85
2019-03-03T02:48:02.867Z,84
2019-03-03T02:49:03.078Z,84
2019-03-03T02:50:03.022Z,84
2019-03-03T02:51:02.964Z,84
2019-03-03T02:52:02.960Z,84
2019-03-03T02:53:03.854Z,84
2019-03-03T02:54:02.892Z,84
2019-03-03T02:55:03.004Z,84
2019-03-03T02:56:03.451Z,84
2019-03-03T02:57:02.496Z,84
2019-03-03T02:58:02.955Z,84
2019-03-03T02:59:02.979Z,84
2019-03-03T03:00:03.267Z,84
2019-03-03T03:01:02.863Z,84
2019-03-03T03:02:03.065Z,84
2019-03-03T03:03:03.247Z,84
2019-03-03T03:04:03.563Z,84
2019-03-03T03:05:03.043Z,84
2019-03-03T03:06:02.917Z,84
2019-03-03T03:07:02.906Z,84
2019-03-03T03:08:03.046Z,84
2019-03-03T03:09:02.887Z,84
2019-03-03T03:10:03.001Z,84
2019-03-03T03:11:03.568Z,84
2019-03-03T03:12:03.780Z,84
2019-03-03T03:13:03.695Z,84
2019-03-03T03:14:03.726Z,84
2019-03-03T03:15:03.562Z,84
2019-03-03T03:16:03.444Z,84
2019-03-03T03:17:03.538Z,84
2019-03-03T03:18:03.649Z,84
2019-03-03T03:19:03.568Z,84
2019-03-03T03:20:03.478Z,84
2019-03-03T03:21:03.420Z,84
2019-03-03T03:22:03.489Z,84
2019-03-03T03:23:03.621Z,84
2019-03-03T03:24:03.358Z,84
2019-03-03T03:25:03.505Z,84
2019-03-03T03:26:03.456Z,84
2019-03-03T03:27:03.282Z,84
2019-03-03T03:28:03.152Z,84
2019-03-03T03:29:03.475Z,84
2019-03-03T03:30:03.405Z,84
2019-03-03T03:31:03.375Z,84
2019-03-03T03:32:03.338Z,84
2019-03-03T03:33:02.938Z,84
2019-03-03T03:34:03.447Z,84
2019-03-03T03:35:03.218Z,84
2019-03-03T03:36:03.044Z,84
2019-03-03T03:37:02.970Z,84
2019-03-03T03:38:03.306Z,84
2019-03-03T03:39:01.840Z,84
2019-03-03T03:40:03.168Z,84
2019-03-03T03:41:03.164Z,84
2019-03-03T03:42:03.128Z,84
2019-03-03T03:43:02.743Z,84
2019-03-03T03:44:03.047Z,84
2019-03-03T03:45:03.029Z,84
2019-03-03T03:46:03.074Z,84
2019-03-03T03:47:03.044Z,84
2019-03-03T03:48:03.766Z,84
2019-03-03T03:49:03.816Z,84
2019-03-03T03:50:02.838Z,84
2019-03-03T03:51:02.869Z,84
2019-03-03T03:52:03.630Z,84
2019-03-03T03:53:03.732Z,84
2019-03-03T03:54:03.610Z,84
2019-03-03T03:55:02.877Z,84
2019-03-03T03:56:03.755Z,84
2019-03-03T03:57:02.662Z,84
2019-03-03T03:58:03.809Z,84
2019-03-03T03:59:03.760Z,84
2019-03-03T04:00:03.718Z,84
2019-03-03T04:01:03.596Z,84
2019-03-03T04:02:03.519Z,84
2019-03-03T04:03:03.432Z,84
2019-03-03T04:04:03.740Z,84
2019-03-03T04:05:03.712Z,84
2019-03-03T04:06:03.685Z,84
2019-03-03T04:07:03.274Z,84
2019-03-03T04:08:03.506Z,84
2019-03-03T04:09:03.559Z,84
2019-03-03T04:10:03.347Z,84
2019-03-03T04:11:03.585Z,84
2019-03-03T04:12:03.409Z,84
2019-03-03T04:13:03.390Z,84
2019-03-03T04:14:03.437Z,84
2019-03-03T04:15:03.368Z,84
2019-03-03T04:16:03.380Z,84
2019-03-03T04:17:03.384Z,84
2019-03-03T04:18:03.151Z,84
2019-03-03T04:19:03.397Z,84
2019-03-03T04:20:03.178Z,84
2019-03-03T04:21:03.419Z,84
2019-03-03T04:22:02.808Z,84
2019-03-03T04:23:03.553Z,84
2019-03-03T04:24:03.292Z,84
2019-03-03T04:25:03.278Z,84
2019-03-03T04:26:03.204Z,84
2019-03-03T04:27:02.958Z,84
2019-03-03T04:28:03.279Z,84
2019-03-03T04:29:02.898Z,84
2019-03-03T04:30:03.566Z,84
2019-03-03T04:31:02.794Z,84
2019-03-03T04:32:03.206Z,84
2019-03-03T04:33:03.661Z,84
2019-03-03T04:34:02.930Z,84
2019-03-03T04:35:02.893Z,84
2019-03-03T04:36:03.177Z,84
2019-03-03T04:37:03.000Z,84
2019-03-03T04:38:03.009Z,84
2019-03-03T04:39:03.088Z,84
2019-03-03T04:40:03.046Z,84
2019-03-03T04:41:02.951Z,84
2019-03-03T04:42:02.714Z,84
2019-03-03T04:43:02.589Z,84
2019-03-03T04:44:03.705Z,84
2019-03-03T04:45:02.714Z,84
2019-03-03T04:46:03.615Z,84
2019-03-03T04:47:03.130Z,84
2019-03-03T04:48:03.689Z,84
2019-03-03T04:49:02.761Z,84
2019-03-03T04:50:03.889Z,84
2019-03-03T04:51:03.370Z,84
2019-03-03T04:52:03.626Z,84
2019-03-03T04:53:03.882Z,84
2019-03-03T04:54:03.596Z,84
2019-03-03T04:55:03.439Z,84
2019-03-03T04:56:03.670Z,84
2019-03-03T04:57:03.464Z,84
2019-03-03T04:58:03.016Z,84
2019-03-03T04:59:03.157Z,84
2019-03-03T05:00:03.390Z,84
2019-03-03T05:01:03.212Z,84
2019-03-03T05:02:02.715Z,84
2019-03-03T05:03:03.197Z,84
2019-03-03T05:04:03.251Z,84
2019-03-03T05:05:03.332Z,84
2019-03-03T05:06:02.948Z,84
2019-03-03T05:07:03.244Z,84
2019-03-03T05:08:03.088Z,84
2019-03-03T05:09:03.242Z,84
2019-03-03T05:10:03.257Z,84
2019-03-03T05:11:03.403Z,84
2019-03-03T05:12:03.062Z,84
2019-03-03T05:13:02.969Z,84
2019-03-03T05:14:02.890Z,84
2019-03-03T05:15:03.116Z,84
2019-03-03T05:16:02.932Z,84
2019-03-03T05:17:02.810Z,84
2019-03-03T05:18:02.698Z,84
2019-03-03T05:19:03.783Z,84
2019-03-03T05:20:02.856Z,84
2019-03-03T05:21:03.752Z,84
2019-03-03T05:22:03.652Z,84
2019-03-03T05:23:03.622Z,84
2019-03-03T05:24:02.934Z,84
2019-03-03T05:25:03.668Z,84
2019-03-03T05:26:03.717Z,84
2019-03-03T05:27:03.500Z,84
2019-03-03T05:28:03.448Z,84
2019-03-03T05:29:03.494Z,84
2019-03-03T05:30:03.971Z,84
2019-03-03T05:31:03.598Z,84
2019-03-03T05:32:03.407Z,84
2019-03-03T05:33:03.405Z,84
2019-03-03T05:34:03.388Z,84
2019-03-03T05:35:03.754Z,84
2019-03-03T05:36:03.353Z,84
2019-03-03T05:37:03.341Z,84
2019-03-03T05:38:03.579Z,84
2019-03-03T05:39:03.483Z,85
2019-03-03T05:40:03.567Z,85
2019-03-03T05:41:03.368Z,85
2019-03-03T05:42:03.461Z,85
2019-03-03T05:43:03.281Z,85
2019-03-03T05:44:03.348Z,85
2019-03-03T05:45:03.330Z,85
2019-03-03T05:46:03.332Z,85
2019-03-03T05:47:03.446Z,85
2019-03-03T05:48:03.440Z,85
2019-03-03T05:49:03.151Z,85
2019-03-03T05:50:03.335Z,85
2019-03-03T05:51:03.057Z,85
2019-03-03T05:52:03.809Z,85
2019-03-03T05:53:03.052Z,84
2019-03-03T05:54:03.128Z,84
2019-03-03T05:55:03.179Z,84
2019-03-03T05:56:02.923Z,84
2019-03-03T05:57:03.005Z,84
2019-03-03T05:58:03.121Z,84
2019-03-03T05:59:03.291Z,84
2019-03-03T06:00:03.071Z,84
2019-03-03T06:01:03.033Z,84
2019-03-03T06:02:02.968Z,84
2019-03-03T06:03:02.524Z,84
2019-03-03T06:04:03.175Z,84
2019-03-03T06:05:02.907Z,84
2019-03-03T06:06:03.084Z,84
2019-03-03T06:07:03.641Z,84
2019-03-03T06:08:02.832Z,84
2019-03-03T06:09:03.650Z,84
2019-03-03T06:10:03.774Z,84
2019-03-03T06:11:03.585Z,84
2019-03-03T06:12:03.617Z,84
2019-03-03T06:13:03.796Z,84
2019-03-03T06:14:03.640Z,84
2019-03-03T06:15:03.558Z,84
2019-03-03T06:16:03.776Z,84
2019-03-03T06:17:03.537Z,84
2019-03-03T06:18:03.484Z,84
2019-03-03T06:19:03.865Z,84
2019-03-03T06:20:03.433Z,84
2019-03-03T06:21:03.292Z,84
2019-03-03T06:22:03.601Z,84
2019-03-03T06:23:03.463Z,84
2019-03-03T06:24:03.266Z,84
2019-03-03T06:25:03.605Z,84
2019-03-03T06:26:03.405Z,84
2019-03-03T06:27:03.445Z,84
2019-03-03T06:28:03.117Z,84
2019-03-03T06:29:03.306Z,84
2019-03-03T06:30:05.693Z,84
2019-03-03T06:31:03.396Z,84
2019-03-03T06:32:03.191Z,84
2019-03-03T06:33:03.340Z,84
2019-03-03T06:34:03.081Z,84
2019-03-03T06:35:03.303Z,84
2019-03-03T06:36:03.296Z,84
2019-03-03T06:37:03.360Z,84
2019-03-03T06:38:03.344Z,84
2019-03-03T06:39:02.827Z,84
2019-03-03T06:40:03.326Z,84
2019-03-03T06:41:03.182Z,84
2019-03-03T06:42:03.382Z,84
2019-03-03T06:43:03.324Z,84
2019-03-03T06:44:03.381Z,83
2019-03-03T06:45:03.054Z,83
2019-03-03T06:46:03.154Z,83
2019-03-03T06:47:03.122Z,83
2019-03-03T06:48:03.004Z,83
2019-03-03T06:49:03.072Z,83
2019-03-03T06:50:03.196Z,83
2019-03-03T06:51:03.317Z,83
2019-03-03T06:52:03.805Z,83
2019-03-03T06:53:02.903Z,83
2019-03-03T06:54:03.244Z,83
2019-03-03T06:55:02.956Z,83
2019-03-03T06:56:02.848Z,83
2019-03-03T06:57:03.088Z,83
2019-03-03T06:58:02.579Z,83
2019-03-03T06:59:03.647Z,83
2019-03-03T07:00:02.883Z,83
2019-03-03T07:01:03.496Z,83
2019-03-03T07:02:02.705Z,83
2019-03-03T07:03:03.035Z,83
2019-03-03T07:04:03.040Z,83
2019-03-03T07:05:03.069Z,82
2019-03-03T07:06:02.971Z,82
2019-03-03T07:07:04.340Z,82
2019-03-03T07:08:03.048Z,82
2019-03-03T07:09:03.597Z,82
2019-03-03T07:10:03.709Z,82
2019-03-03T07:11:03.719Z,82
2019-03-03T07:12:03.639Z,82
2019-03-03T07:13:03.861Z,82
2019-03-03T07:14:03.679Z,81
2019-03-03T07:15:03.662Z,81
2019-03-03T07:16:03.384Z,81
2019-03-03T07:17:03.757Z,81
2019-03-03T07:18:03.383Z,81
2019-03-03T07:19:03.517Z,81
2019-03-03T07:20:03.504Z,81
2019-03-03T07:21:03.420Z,81
2019-03-03T07:22:03.533Z,81
2019-03-03T07:23:03.461Z,80
2019-03-03T07:24:03.419Z,80
2019-03-03T07:25:03.532Z,80
2019-03-03T07:26:03.081Z,80
2019-03-03T07:27:03.258Z,80
2019-03-03T07:28:03.465Z,80
2019-03-03T07:29:03.169Z,80
2019-03-03T07:30:03.377Z,79
2019-03-03T07:31:03.094Z,79
2019-03-03T07:32:03.377Z,79
2019-03-03T07:33:03.229Z,79
2019-03-03T07:34:03.349Z,79
2019-03-03T07:35:03.243Z,79
2019-03-03T07:36:03.263Z,79
2019-03-03T07:37:03.225Z,79
2019-03-03T07:38:02.982Z,79
2019-03-03T07:39:03.022Z,79
2019-03-03T07:40:02.780Z,79
2019-03-03T07:41:03.138Z,79
2019-03-03T07:42:03.030Z,78
2019-03-03T07:43:03.038Z,78
2019-03-03T07:44:03.024Z,78
2019-03-03T07:45:04.777Z,78
2019-03-03T07:46:03.701Z,78
2019-03-03T07:47:02.915Z,78
2019-03-03T07:48:03.797Z,78
2019-03-03T07:49:04.348Z,78
2019-03-03T07:50:03.455Z,77
2019-03-03T07:51:03.048Z,77
2019-03-03T07:52:03.016Z,77
2019-03-03T07:53:03.765Z,78
2019-03-03T07:54:03.869Z,77
2019-03-03T07:55:03.765Z,78
2019-03-03T07:56:03.780Z,78
2019-03-03T07:57:02.658Z,78
2019-03-03T07:58:03.689Z,77
2019-03-03T07:59:03.468Z,77
2019-03-03T08:00:03.722Z,77
2019-03-03T08:01:03.457Z,77
2019-03-03T08:02:02.819Z,77
2019-03-03T08:03:03.495Z,77
2019-03-03T08:04:03.868Z,77
2019-03-03T08:05:02.969Z,77
2019-03-03T08:06:03.571Z,76
2019-03-03T08:07:03.505Z,76
2019-03-03T08:08:04.083Z,76
2019-03-03T08:09:03.469Z,75
2019-03-03T08:10:03.612Z,75
2019-03-03T08:11:03.779Z,75
2019-03-03T08:12:03.790Z,75
2019-03-03T08:13:09.910Z,75
2019-03-03T08:14:03.624Z,75
2019-03-03T08:15:03.346Z,75
2019-03-03T08:16:02.928Z,75
2019-03-03T08:17:03.467Z,75
2019-03-03T08:18:03.425Z,74
2019-03-03T08:19:03.312Z,74
2019-03-03T08:20:03.563Z,74
2019-03-03T08:21:02.103Z,73
2019-03-03T08:22:03.438Z,73
2019-03-03T08:23:03.297Z,73
2019-03-03T08:24:03.313Z,73
2019-03-03T08:25:03.211Z,73
2019-03-03T08:26:03.280Z,73
2019-03-03T08:27:03.279Z,73
2019-03-03T08:28:03.025Z,73
2019-03-03T08:29:03.077Z,73
2019-03-03T08:30:03.015Z,73
2019-03-03T08:31:03.225Z,72
2019-03-03T08:32:02.883Z,72
2019-03-03T08:33:03.155Z,72
2019-03-03T08:34:02.845Z,72
2019-03-03T08:35:02.977Z,72
2019-03-03T08:36:02.714Z,72
2019-03-03T08:37:03.080Z,72
2019-03-03T08:38:03.825Z,72
2019-03-03T08:39:03.686Z,72
2019-03-03T08:40:02.878Z,72
2019-03-03T08:41:02.787Z,71
2019-03-03T08:42:03.827Z,71
2019-03-03T08:43:04.450Z,70
2019-03-03T08:44:03.660Z,70
2019-03-03T08:45:03.672Z,70
2019-03-03T08:46:03.611Z,70
2019-03-03T08:47:03.578Z,70
2019-03-03T08:48:03.616Z,70
2019-03-03T08:49:03.492Z,70
2019-03-03T08:50:02.973Z,70
2019-03-03T08:51:03.844Z,70
2019-03-03T08:52:03.012Z,70
2019-03-03T08:53:03.590Z,70
2019-03-03T08:54:03.369Z,70
2019-03-03T08:55:03.605Z,70
2019-03-03T08:56:03.481Z,70
2019-03-03T08:57:03.387Z,70
2019-03-03T08:58:03.355Z,70
2019-03-03T08:59:03.521Z,70
2019-03-03T09:00:03.501Z,70
2019-03-03T09:01:03.474Z,70
2019-03-03T09:02:03.463Z,70
2019-03-03T09:03:03.365Z,70
2019-03-03T09:04:03.426Z,70
2019-03-03T09:05:03.351Z,70
2019-03-03T09:06:03.292Z,70
2019-03-03T09:07:03.317Z,70
2019-03-03T09:08:03.322Z,70
2019-03-03T09:09:02.985Z,70
2019-03-03T09:10:03.299Z,70
2019-03-03T09:11:03.451Z,70
2019-03-03T09:12:03.151Z,70
2019-03-03T09:13:03.088Z,70
2019-03-03T09:14:03.178Z,70
2019-03-03T09:15:03.613Z,70
2019-03-03T09:16:03.701Z,70
2019-03-03T09:17:03.381Z,70
2019-03-03T09:18:02.999Z,69
2019-03-03T09:19:03.519Z,69
2019-03-03T09:20:02.573Z,69
2019-03-03T09:21:03.827Z,68
2019-03-03T09:22:04.969Z,69
2019-03-03T09:23:03.700Z,68
2019-03-03T09:24:03.534Z,69
2019-03-03T09:25:03.690Z,68
2019-03-03T09:26:03.681Z,68
2019-03-03T09:27:03.553Z,68
2019-03-03T09:28:03.096Z,68
2019-03-03T09:29:02.726Z,68
2019-03-03T09:30:03.687Z,68
2019-03-03T09:31:02.870Z,68
2019-03-03T09:32:03.679Z,68
2019-03-03T09:33:03.586Z,68
2019-03-03T09:34:03.346Z,68
2019-03-03T09:35:03.692Z,68
2019-03-03T09:36:03.491Z,68
2019-03-03T09:37:03.314Z,68
2019-03-03T09:38:03.489Z,68
2019-03-03T09:39:03.283Z,68
2019-03-03T09:40:10.028Z,68
2019-03-03T09:41:03.255Z,68
2019-03-03T09:42:03.644Z,68
2019-03-03T09:43:03.412Z,68
2019-03-03T09:44:03.378Z,68
2019-03-03T09:45:03.185Z,68
2019-03-03T09:46:03.406Z,68
2019-03-03T09:47:03.331Z,68
2019-03-03T09:48:03.338Z,68
2019-03-03T09:49:03.331Z,68
2019-03-03T09:50:03.049Z,68
2019-03-03T09:51:03.163Z,68
2019-03-03T09:52:03.084Z,68
2019-03-03T09:53:03.104Z,68
2019-03-03T09:54:03.224Z,68
2019-03-03T09:55:03.452Z,68
2019-03-03T09:56:03.219Z,68
2019-03-03T09:57:03.191Z,65
2019-03-03T09:58:03.758Z,65
2019-03-03T09:59:03.008Z,65
2019-03-03T10:00:03.274Z,65
2019-03-03T10:01:03.025Z,65
2019-03-03T10:02:03.067Z,65
2019-03-03T10:03:03.006Z,65
2019-03-03T10:04:03.017Z,65
2019-03-03T10:05:02.939Z,65
2019-03-03T10:06:03.166Z,65
2019-03-03T10:07:03.787Z,65
2019-03-03T10:08:03.757Z,65
2019-03-03T10:09:03.811Z,65
2019-03-03T10:10:03.863Z,65
2019-03-03T10:11:03.542Z,64
2019-03-03T10:12:03.688Z,64
2019-03-03T10:13:02.860Z,64
2019-03-03T10:14:03.801Z,64
2019-03-03T10:15:03.647Z,64
2019-03-03T10:16:03.783Z,64
2019-03-03T10:17:02.782Z,64
2019-03-03T10:18:03.379Z,64
2019-03-03T10:19:07.604Z,64
2019-03-03T10:20:03.816Z,64
2019-03-03T10:21:03.696Z,64
2019-03-03T10:22:03.180Z,64
2019-03-03T10:23:03.604Z,64
2019-03-03T10:24:03.656Z,64
2019-03-03T10:25:03.274Z,63
2019-03-03T10:26:03.468Z,63
2019-03-03T10:27:03.352Z,62
2019-03-03T10:28:03.576Z,62
2019-03-03T10:29:03.308Z,63
2019-03-03T10:30:03.595Z,63
2019-03-03T10:31:03.096Z,63
2019-03-03T10:32:03.418Z,63
2019-03-03T10:33:03.165Z,63
2019-03-03T10:34:03.087Z,62
2019-03-03T10:35:03.217Z,62
2019-03-03T10:36:03.264Z,61
2019-03-03T10:37:03.334Z,60
2019-03-03T10:38:03.153Z,61
2019-03-03T10:39:03.142Z,60
2019-03-03T10:40:04.089Z,61
2019-03-03T10:41:03.112Z,61
2019-03-03T10:42:02.614Z,61
2019-03-03T10:43:02.996Z,61
2019-03-03T10:44:03.211Z,61
2019-03-03T10:45:03.271Z,61
2019-03-03T10:46:02.866Z,61
2019-03-03T10:47:03.012Z,61
2019-03-03T10:48:03.306Z,61
2019-03-03T10:49:03.142Z,61
2019-03-03T10:50:02.979Z,61
2019-03-03T10:51:03.115Z,60
2019-03-03T10:52:02.956Z,60
2019-03-03T10:53:03.545Z,61
2019-03-03T10:54:02.929Z,60
2019-03-03T10:55:02.987Z,60
2019-03-03T10:56:03.128Z,60
2019-03-03T10:57:02.939Z,60
2019-03-03T10:58:03.011Z,60
2019-03-03T10:59:03.378Z,60
2019-03-03T11:00:03.922Z,60
2019-03-03T11:01:03.857Z,60
2019-03-03T11:02:03.568Z,60
2019-03-03T11:03:03.785Z,60
2019-03-03T11:04:02.705Z,60
2019-03-03T11:05:03.910Z,60
2019-03-03T11:06:03.839Z,60
2019-03-03T11:07:03.741Z,60
2019-03-03T11:08:03.668Z,60
2019-03-03T11:09:03.758Z,60
2019-03-03T11:10:03.612Z,60
2019-03-03T11:11:03.710Z,60
2019-03-03T11:12:03.307Z,60
2019-03-03T11:13:03.417Z,59
2019-03-03T11:14:03.866Z,60
2019-03-03T11:15:03.648Z,59
2019-03-03T11:16:03.314Z,59
2019-03-03T11:17:03.448Z,59
2019-03-03T11:18:03.422Z,59
2019-03-03T11:19:02.825Z,59
2019-03-03T11:20:03.501Z,58
2019-03-03T11:21:03.111Z,58
2019-03-03T11:22:03.291Z,58
2019-03-03T11:23:03.085Z,58
2019-03-03T11:24:03.100Z,58
2019-03-03T11:25:02.758Z,58
2019-03-03T11:26:03.271Z,58
2019-03-03T11:27:03.300Z,58
2019-03-03T11:28:03.339Z,59
2019-03-03T11:29:03.239Z,58
2019-03-03T11:30:03.497Z,58
2019-03-03T11:31:03.193Z,58
2019-03-03T11:32:03.331Z,58
2019-03-03T11:33:03.134Z,58
2019-03-03T11:34:02.985Z,58
2019-03-03T11:35:03.402Z,57
2019-03-03T11:36:02.925Z,58
2019-03-03T11:37:03.099Z,58
2019-03-03T11:38:02.857Z,57
2019-03-03T11:39:03.263Z,57
2019-03-03T11:40:03.163Z,57
2019-03-03T11:41:02.979Z,57
2019-03-03T11:42:03.539Z,56
2019-03-03T11:43:03.131Z,56
2019-03-03T11:44:03.723Z,57
2019-03-03T11:45:03.815Z,57
2019-03-03T11:46:04.400Z,57
2019-03-03T11:47:02.983Z,57
2019-03-03T11:48:04.861Z,57
2019-03-03T11:49:03.669Z,58
2019-03-03T11:50:03.166Z,58
2019-03-03T11:51:03.893Z,57
2019-03-03T11:52:03.774Z,57
2019-03-03T11:53:03.824Z,57
2019-03-03T11:54:02.958Z,56
2019-03-03T11:55:03.062Z,56
2019-03-03T11:56:03.182Z,56
2019-03-03T11:57:04.111Z,56
2019-03-03T11:58:06.226Z,57
2019-03-03T11:59:02.864Z,57
2019-03-03T12:00:03.867Z,57
2019-03-03T12:01:03.057Z,57
2019-03-03T12:02:03.491Z,57
2019-03-03T12:03:03.845Z,57
2019-03-03T12:04:03.538Z,57
2019-03-03T12:05:03.727Z,57
2019-03-03T12:06:03.513Z,57
2019-03-03T12:07:03.636Z,57
2019-03-03T12:08:03.518Z,57
2019-03-03T12:09:03.532Z,57
2019-03-03T12:10:03.625Z,57
2019-03-03T12:11:03.684Z,57
2019-03-03T12:12:03.422Z,57
2019-03-03T12:13:03.373Z,57
2019-03-03T12:14:03.499Z,57
2019-03-03T12:15:03.678Z,57
2019-03-03T12:16:03.377Z,57
2019-03-03T12:17:03.369Z,57
2019-03-03T12:18:03.311Z,57
2019-03-03T12:19:02.921Z,57
2019-03-03T12:20:03.370Z,57
2019-03-03T12:21:03.251Z,57
2019-03-03T12:22:03.426Z,57
2019-03-03T12:23:03.177Z,57
2019-03-03T12:24:03.524Z,57
2019-03-03T12:25:03.522Z,57
2019-03-03T12:26:02.815Z,57
2019-03-03T12:27:03.206Z,57
2019-03-03T12:28:03.265Z,57
2019-03-03T12:29:03.090Z,57
2019-03-03T12:30:03.354Z,57
2019-03-03T12:31:03.088Z,57
2019-03-03T12:32:03.031Z,57
2019-03-03T12:33:02.813Z,57
2019-03-03T12:34:03.096Z,57
2019-03-03T12:35:03.120Z,57
2019-03-03T12:36:05.232Z,57
2019-03-03T12:37:03.647Z,57
2019-03-03T12:38:02.972Z,57
2019-03-03T12:39:03.100Z,57
2019-03-03T12:40:03.216Z,57
2019-03-03T12:41:03.215Z,57
2019-03-03T12:42:03.917Z,56
2019-03-03T12:43:02.751Z,56
2019-03-03T12:44:02.848Z,56
2019-03-03T12:45:03.028Z,56
2019-03-03T12:46:03.674Z,57
2019-03-03T12:47:03.857Z,57
2019-03-03T12:48:02.557Z,57
2019-03-03T12:49:03.703Z,57
2019-03-03T12:50:03.749Z,57
2019-03-03T12:51:03.344Z,57
2019-03-03T12:52:03.801Z,57
2019-03-03T12:53:03.566Z,57
2019-03-03T12:54:03.284Z,57
2019-03-03T12:55:03.566Z,57
2019-03-03T12:56:04.021Z,57
2019-03-03T12:57:03.735Z,57
2019-03-03T12:58:03.216Z,57
2019-03-03T12:59:03.239Z,57
2019-03-03T13:00:03.517Z,57
2019-03-03T13:01:03.021Z,57
2019-03-03T13:02:03.673Z,58
2019-03-03T13:03:03.604Z,58
2019-03-03T13:04:03.648Z,58
2019-03-03T13:05:03.780Z,58
2019-03-03T13:06:03.485Z,58
2019-03-03T13:07:03.559Z,58
2019-03-03T13:08:03.439Z,58
2019-03-03T13:09:03.684Z,58
2019-03-03T13:10:03.712Z,58
2019-03-03T13:11:03.276Z,58
2019-03-03T13:12:03.097Z,58
2019-03-03T13:13:03.308Z,58
2019-03-03T13:14:02.679Z,58
2019-03-03T13:15:03.201Z,58
2019-03-03T13:16:03.286Z,58
2019-03-03T13:17:03.327Z,58
2019-03-03T13:18:03.122Z,58
2019-03-03T13:19:03.064Z,58
2019-03-03T13:20:03.017Z,58
2019-03-03T13:21:03.844Z,58
2019-03-03T13:22:03.141Z,58
2019-03-03T13:23:02.766Z,58
2019-03-03T13:24:03.299Z,58
2019-03-03T13:25:03.552Z,58
2019-03-03T13:26:02.863Z,58
2019-03-03T13:27:03.844Z,58
2019-03-03T13:28:02.842Z,58
2019-03-03T13:29:03.679Z,58
2019-03-03T13:30:03.170Z,58
2019-03-03T13:31:03.713Z,58
2019-03-03T13:32:03.772Z,58
2019-03-03T13:33:03.614Z,58
2019-03-03T13:34:03.765Z,58
2019-03-03T13:35:03.612Z,58
2019-03-03T13:36:03.572Z,58
2019-03-03T13:37:04.105Z,58
2019-03-03T13:38:03.481Z,58
2019-03-03T13:39:03.494Z,57
2019-03-03T13:40:03.320Z,58
2019-03-03T13:41:03.386Z,57
2019-03-03T13:42:03.147Z,57
2019-03-03T13:43:03.465Z,57
2019-03-03T13:44:03.376Z,57
2019-03-03T13:45:03.375Z,57
2019-03-03T13:46:03.378Z,57
2019-03-03T13:47:03.136Z,57
2019-03-03T13:48:03.396Z,57
2019-03-03T13:49:02.981Z,57
2019-03-03T13:50:03.255Z,57
2019-03-03T13:51:02.619Z,57
2019-03-03T13:52:03.012Z,57
2019-03-03T13:53:03.022Z,57
2019-03-03T13:54:03.121Z,57
2019-03-03T13:55:03.281Z,57
2019-03-03T13:56:03.239Z,57
2019-03-03T13:57:03.136Z,57
2019-03-03T13:58:02.990Z,57
2019-03-03T13:59:02.967Z,57
2019-03-03T14:00:02.981Z,57
2019-03-03T14:01:03.083Z,57
2019-03-03T14:02:02.960Z,57
2019-03-03T14:03:02.999Z,57
2019-03-03T14:04:03.790Z,58
2019-03-03T14:05:02.827Z,58
2019-03-03T14:06:03.558Z,58
2019-03-03T14:07:02.980Z,58
2019-03-03T14:08:03.648Z,57
2019-03-03T14:09:03.378Z,57
2019-03-03T14:10:02.832Z,57
2019-03-03T14:11:03.001Z,57
2019-03-03T14:12:03.698Z,57
2019-03-03T14:13:02.748Z,57
2019-03-03T14:14:02.936Z,57
2019-03-03T14:15:03.569Z,58